Time;durP1;ratioP1;P1;durP2;ratioP2;P2;SDS_P1;SDS_P2;PMS_P1;PMS_P2;Temp;Humidity;BMP_temperature;BMP_pressure;BME280_temperature;BME280_humidity;BME280_pressure;Samples;Min_cycle;Max_cycle;Signal;HPM_P1;HPM_P2
2022/10/06 00:00:36;;;;;;;4.28;1.40;;;17.90;99.90;;;;;;4977751;28;20033;-79
2022/10/06 00:03:02;;;;;;;3.03;1.50;;;18.00;99.90;;;;;;4977084;28;20030;-79
2022/10/06 00:05:28;;;;;;;3.08;1.70;;;17.90;99.90;;;;;;4977733;28;20030;-79
2022/10/06 00:07:54;;;;;;;3.85;1.70;;;18.00;99.90;;;;;;4994373;28;20035;-79
2022/10/06 00:10:20;;;;;;;4.18;1.80;;;18.00;99.90;;;;;;4977961;28;20027;-79
2022/10/06 00:12:49;;;;;;;6.30;1.85;;;18.00;99.90;;;;;;4995116;28;20456;-80
2022/10/06 00:15:18;;;;;;;3.00;1.63;;;18.00;99.90;;;;;;4995207;28;20050;-79
2022/10/06 00:17:44;;;;;;;5.05;1.60;;;18.00;99.90;;;;;;4977881;28;20033;-78
2022/10/06 00:20:10;;;;;;;2.58;1.50;;;18.00;99.90;;;;;;4977019;28;20387;-79
2022/10/06 00:22:44;;;;;;;5.80;1.70;;;17.90;99.90;;;;;;4977367;28;20022;-78
2022/10/06 00:25:13;;;;;;;3.70;1.70;;;17.90;99.90;;;;;;4994120;28;20093;-79
2022/10/06 00:27:42;;;;;;;3.55;1.63;;;17.90;99.90;;;;;;4977387;28;20030;-79
2022/10/06 00:30:10;;;;;;;5.80;1.73;;;18.00;99.90;;;;;;4977001;28;20109;-78
2022/10/06 00:32:37;;;;;;;3.60;1.55;;;17.90;99.90;;;;;;4993759;28;20113;-79
2022/10/06 00:35:03;;;;;;;3.60;1.52;;;17.90;99.90;;;;;;4994203;28;20085;-78
2022/10/06 00:37:32;;;;;;;6.05;1.50;;;17.90;99.90;;;;;;4976952;28;20085;-78
2022/10/06 00:39:58;;;;;;;3.78;1.58;;;17.90;99.90;;;;;;4993958;28;20034;-78
2022/10/06 00:42:26;;;;;;;4.88;1.58;;;17.80;99.90;;;;;;4976929;28;20026;-78
2022/10/06 00:44:53;;;;;;;3.60;1.90;;;17.80;99.90;;;;;;4993750;28;20105;-79
2022/10/06 00:47:21;;;;;;;4.85;1.80;;;17.80;99.90;;;;;;4976988;28;20126;-78
2022/10/06 00:49:47;;;;;;;5.38;1.88;;;17.70;99.90;;;;;;4992954;28;20037;-79
2022/10/06 00:52:17;;;;;;;6.43;1.65;;;17.70;99.90;;;;;;4976826;28;20483;-78
2022/10/06 00:54:43;;;;;;;3.63;1.60;;;17.70;99.90;;;;;;4977333;28;20037;-78
2022/10/06 00:57:09;;;;;;;4.22;1.98;;;17.60;99.90;;;;;;4976858;28;20030;-78
2022/10/06 00:59:36;;;;;;;3.97;1.70;;;17.60;99.90;;;;;;4977133;28;20125;-78
2022/10/06 01:02:22;;;;;;;3.58;1.75;;;17.60;99.90;;;;;;4976374;28;20510;-78
2022/10/06 01:04:54;;;;;;;4.32;1.63;;;17.50;99.90;;;;;;4994351;28;20030;-79
2022/10/06 01:07:21;;;;;;;6.07;1.80;;;17.50;99.90;;;;;;4994100;28;20129;-77
2022/10/06 01:09:47;;;;;;;3.83;1.88;;;17.40;99.90;;;;;;4976753;28;20026;-78
2022/10/06 01:12:14;;;;;;;5.57;1.60;;;17.40;99.90;;;;;;4976364;28;20038;-77
2022/10/06 01:14:40;;;;;;;2.25;1.52;;;17.30;99.90;;;;;;4976794;28;20046;-77
2022/10/06 01:17:15;;;;;;;4.65;1.92;;;17.30;99.90;;;;;;4993489;28;20032;-78
2022/10/06 01:19:49;;;;;;;4.40;1.58;;;17.20;99.90;;;;;;4976835;28;20556;-78
2022/10/06 01:22:18;;;;;;;2.97;1.52;;;17.10;99.90;;;;;;4976460;28;20026;-78
2022/10/06 01:24:46;;;;;;;3.00;1.70;;;17.10;99.90;;;;;;4992559;28;20029;-77
2022/10/06 01:27:14;;;;;;;4.38;1.70;;;17.10;99.90;;;;;;4992212;28;20026;-78
2022/10/06 01:29:40;;;;;;;6.00;1.65;;;17.00;99.90;;;;;;4993669;28;20037;-78
2022/10/06 01:32:06;;;;;;;4.22;1.73;;;17.00;99.90;;;;;;4991748;28;20583;-79
2022/10/06 01:34:32;;;;;;;5.00;1.83;;;17.00;99.90;;;;;;4993785;28;20041;-78
2022/10/06 01:36:58;;;;;;;3.08;1.60;;;16.90;99.90;;;;;;4975844;28;20022;-78
2022/10/06 01:39:23;;;;;;;7.13;1.88;;;16.90;99.90;;;;;;4976117;28;20058;-78
2022/10/06 01:41:49;;;;;;;5.45;1.75;;;16.90;99.90;;;;;;4979827;28;20030;-78
2022/10/06 01:44:14;;;;;;;5.15;1.92;;;16.80;99.90;;;;;;4979699;28;20391;-78
2022/10/06 01:46:40;;;;;;;4.68;1.52;;;16.80;99.90;;;;;;4980695;28;20030;-78
2022/10/06 01:49:05;;;;;;;2.83;1.70;;;16.80;99.90;;;;;;4979855;28;20053;-78
2022/10/06 01:51:31;;;;;;;3.88;1.88;;;16.80;99.90;;;;;;4980087;28;20530;-78
2022/10/06 01:53:57;;;;;;;2.92;1.60;;;16.80;99.90;;;;;;4996888;28;20026;-78
2022/10/06 01:56:23;;;;;;;3.50;2.08;;;16.90;99.90;;;;;;4980331;28;20562;-78
2022/10/06 01:58:49;;;;;;;6.53;1.95;;;16.80;99.90;;;;;;4980193;28;20125;-78
2022/10/06 02:01:14;;;;;;;4.18;1.83;;;16.90;99.90;;;;;;4997244;28;20030;-80
2022/10/06 02:03:40;;;;;;;5.93;2.10;;;16.90;99.90;;;;;;4980509;28;20419;-80
2022/10/06 02:06:06;;;;;;;6.25;1.80;;;16.80;99.90;;;;;;4980108;28;20037;-80
2022/10/06 02:08:32;;;;;;;5.88;1.92;;;16.80;99.90;;;;;;4980540;28;20064;-80
2022/10/06 02:10:58;;;;;;;6.13;1.70;;;16.70;99.90;;;;;;4979690;28;20507;-81
2022/10/06 02:13:26;;;;;;;4.53;1.70;;;16.70;99.90;;;;;;4980549;28;20026;-80
2022/10/06 02:15:56;;;;;;;7.38;2.03;;;16.70;99.90;;;;;;4997644;28;20034;-80
2022/10/06 02:18:21;;;;;;;3.97;1.70;;;16.70;99.90;;;;;;4980131;28;20483;-79
2022/10/06 02:20:47;;;;;;;3.63;1.60;;;16.70;99.90;;;;;;4979852;28;20038;-79
2022/10/06 02:23:13;;;;;;;3.15;1.73;;;16.70;99.90;;;;;;4996801;28;20026;-79
2022/10/06 02:25:38;;;;;;;3.78;1.75;;;16.70;99.90;;;;;;4979713;28;20065;-79
2022/10/06 02:28:04;;;;;;;4.07;1.60;;;16.70;99.90;;;;;;4979285;28;20026;-80
2022/10/06 02:30:29;;;;;;;4.38;1.80;;;16.70;99.90;;;;;;4997118;28;20080;-79
2022/10/06 02:32:55;;;;;;;3.13;1.63;;;16.70;99.90;;;;;;4996987;28;20376;-81
2022/10/06 02:35:20;;;;;;;4.20;1.60;;;16.70;99.90;;;;;;4979216;28;20031;-78
2022/10/06 02:37:46;;;;;;;4.65;1.73;;;16.70;99.90;;;;;;4996674;28;20026;-78
2022/10/06 02:40:12;;;;;;;6.30;2.00;;;16.70;99.90;;;;;;4978750;28;20444;-79
2022/10/06 02:42:38;;;;;;;4.47;1.75;;;16.70;99.90;;;;;;4979255;28;20538;-77
2022/10/06 02:45:05;;;;;;;4.75;1.70;;;16.70;99.90;;;;;;4978705;28;20031;-78
2022/10/06 02:47:32;;;;;;;5.97;1.80;;;16.70;99.90;;;;;;4978966;28;20478;-79
2022/10/06 02:50:00;;;;;;;2.22;1.63;;;16.70;99.90;;;;;;4978412;28;20094;-82
2022/10/06 02:52:32;;;;;;;7.40;1.83;;;16.70;99.90;;;;;;4996605;28;20030;-79
2022/10/06 02:54:57;;;;;;;5.78;1.63;;;16.70;99.90;;;;;;4978723;28;20419;-83
2022/10/06 02:57:23;;;;;;;5.78;1.73;;;16.70;99.90;;;;;;4978897;28;20089;-79
2022/10/06 02:59:49;;;;;;;3.78;1.48;;;16.60;99.90;;;;;;4996364;28;20041;-79
2022/10/06 03:02:14;;;;;;;2.38;1.50;;;16.60;99.90;;;;;;4978207;28;20034;-79
2022/10/06 03:04:40;;;;;;;7.30;1.98;;;16.50;99.90;;;;;;4979128;28;20369;-80
2022/10/06 03:07:06;;;;;;;3.28;1.55;;;16.50;99.90;;;;;;4978541;28;20038;-80
2022/10/06 03:09:31;;;;;;;5.90;1.77;;;16.50;99.90;;;;;;4978961;28;20035;-79
2022/10/06 03:11:57;;;;;;;3.10;2.17;;;16.40;99.90;;;;;;4978695;28;20030;-83
2022/10/06 03:14:22;;;;;;;4.32;2.00;;;16.40;99.90;;;;;;4978638;28;20026;-79
2022/10/06 03:16:53;;;;;;;8.82;2.13;;;16.30;99.90;;;;;;4996251;28;20110;-77
2022/10/06 03:19:19;;;;;;;5.68;2.05;;;16.30;99.90;;;;;;4978130;28;20030;-77
2022/10/06 03:21:45;;;;;;;5.25;1.90;;;16.30;99.90;;;;;;4978734;28;20026;-77
2022/10/06 03:24:10;;;;;;;3.08;2.20;;;16.20;99.90;;;;;;4977878;28;20093;-77
2022/10/06 03:26:40;;;;;;;4.97;2.03;;;16.20;99.90;;;;;;4978383;28;20057;-77
2022/10/06 03:29:06;;;;;;;3.25;1.92;;;16.10;99.90;;;;;;4977595;28;20113;-77
2022/10/06 03:31:32;;;;;;;4.68;2.20;;;16.10;99.90;;;;;;4994710;28;20054;-77
2022/10/06 03:33:58;;;;;;;3.63;1.70;;;16.10;99.90;;;;;;4978269;28;20054;-81
2022/10/06 03:36:26;;;;;;;8.80;1.88;;;16.10;99.90;;;;;;4978154;28;20030;-77
2022/10/06 03:38:52;;;;;;;2.97;1.90;;;16.00;99.90;;;;;;4978048;28;20034;-77
2022/10/06 03:41:18;;;;;;;5.35;2.00;;;16.00;99.90;;;;;;4977658;28;20452;-77
2022/10/06 03:43:46;;;;;;;6.75;2.28;;;16.00;99.90;;;;;;4978059;28;20081;-78
2022/10/06 03:46:13;;;;;;;4.00;1.98;;;16.00;99.90;;;;;;4978007;28;20023;-78
2022/10/06 03:48:40;;;;;;;4.18;2.08;;;16.00;99.90;;;;;;4977767;28;20030;-77
2022/10/06 03:51:12;;;;;;;5.13;1.90;;;16.10;99.90;;;;;;4977497;28;20057;-78
2022/10/06 03:53:38;;;;;;;5.65;2.35;;;16.10;99.90;;;;;;4995361;28;20112;-78
2022/10/06 03:56:07;;;;;;;3.95;2.20;;;16.00;99.90;;;;;;4995190;28;20022;-79
2022/10/06 03:58:41;;;;;;;3.63;1.98;;;16.10;99.90;;;;;;4993989;28;20031;-78
2022/10/06 04:01:14;;;;;;;3.15;2.00;;;16.00;99.90;;;;;;4994745;28;20037;-78
2022/10/06 04:03:39;;;;;;;6.72;2.10;;;16.00;99.90;;;;;;4977268;28;20045;-77
2022/10/06 04:06:10;;;;;;;6.00;2.22;;;16.10;99.90;;;;;;4977254;28;20030;-79
2022/10/06 04:08:37;;;;;;;9.57;2.10;;;16.10;99.90;;;;;;4977858;28;20038;-78
2022/10/06 04:11:11;;;;;;;7.70;2.13;;;16.10;99.90;;;;;;4976891;28;20058;-80
2022/10/06 04:13:37;;;;;;;4.35;2.15;;;16.10;99.90;;;;;;4977053;28;20033;-78
2022/10/06 04:16:33;;;;;;;3.35;1.75;;;16.10;99.90;;;;;;4994346;28;20037;-82
2022/10/06 04:19:02;;;;;;;4.95;2.30;;;16.10;99.90;;;;;;4986228;28;20070;-78
2022/10/06 04:21:30;;;;;;;6.85;2.15;;;16.10;99.90;;;;;;4994590;28;20031;-77
2022/10/06 04:23:56;;;;;;;3.80;1.75;;;16.20;99.90;;;;;;4994814;28;20031;-78
2022/10/06 04:26:24;;;;;;;6.10;1.85;;;16.20;99.90;;;;;;4993258;28;20093;-78
2022/10/06 04:28:49;;;;;;;7.95;2.40;;;16.20;99.90;;;;;;4994581;28;20093;-78
2022/10/06 04:31:21;;;;;;;5.00;2.10;;;16.20;99.90;;;;;;4993074;28;20125;-79
2022/10/06 04:33:50;;;;;;;5.20;2.25;;;16.20;99.90;;;;;;4978057;28;20502;-80
2022/10/06 04:36:21;;;;;;;5.13;2.28;;;16.20;99.90;;;;;;4993479;28;20514;-79
2022/10/06 04:38:49;;;;;;;4.38;2.17;;;16.30;99.90;;;;;;4994821;28;20109;-79
2022/10/06 04:41:17;;;;;;;3.97;2.05;;;16.30;99.90;;;;;;4976893;28;20061;-78
2022/10/06 04:43:45;;;;;;;6.78;2.25;;;16.30;99.90;;;;;;4977495;28;20036;-78
2022/10/06 04:46:11;;;;;;;3.63;2.30;;;16.30;99.90;;;;;;4994004;28;20129;-79
2022/10/06 04:48:37;;;;;;;5.85;2.40;;;16.30;99.90;;;;;;4976854;28;20031;-78
2022/10/06 04:51:11;;;;;;;4.55;2.10;;;16.30;99.90;;;;;;4992466;28;20051;-80
2022/10/06 04:53:37;;;;;;;4.22;2.45;;;16.30;99.90;;;;;;4977367;28;20026;-78
2022/10/06 04:56:06;;;;;;;5.13;2.33;;;16.40;99.90;;;;;;4977142;28;20023;-83
2022/10/06 04:58:37;;;;;;;5.13;2.45;;;16.30;99.90;;;;;;4977122;28;20034;-79
2022/10/06 05:01:10;;;;;;;8.95;3.28;;;16.30;99.90;;;;;;4976830;28;20034;-82
2022/10/06 05:03:37;;;;;;;5.60;2.05;;;16.40;99.90;;;;;;4994626;28;20039;-80
2022/10/06 05:06:11;;;;;;;7.32;2.55;;;16.40;99.90;;;;;;4977388;28;20026;-81
2022/10/06 05:08:37;;;;;;;9.32;2.40;;;16.40;99.90;;;;;;4977410;28;20439;-79
2022/10/06 05:11:08;;;;;;;7.88;2.63;;;16.40;99.90;;;;;;4977019;28;20023;-81
2022/10/06 05:13:36;;;;;;;4.72;1.95;;;16.40;99.90;;;;;;4977488;28;20026;-80
2022/10/06 05:16:04;;;;;;;4.25;2.00;;;16.40;99.90;;;;;;4976325;28;20133;-78
2022/10/06 05:18:30;;;;;;;7.88;2.88;;;16.40;99.90;;;;;;4976386;28;20073;-78
2022/10/06 05:20:56;;;;;;;8.07;2.20;;;16.40;99.90;;;;;;4992633;28;20026;-78
2022/10/06 05:23:22;;;;;;;6.25;2.25;;;16.40;99.90;;;;;;4993355;28;20130;-78
2022/10/06 05:25:52;;;;;;;5.35;2.35;;;16.40;99.90;;;;;;4975940;28;20026;-78
2022/10/06 05:28:18;;;;;;;6.60;2.50;;;16.40;99.90;;;;;;4993004;28;20034;-78
2022/10/06 05:31:08;;;;;;;4.38;1.80;;;16.40;99.90;;;;;;4976086;28;20034;-78
2022/10/06 05:33:35;;;;;;;5.88;1.90;;;16.30;99.90;;;;;;4975779;28;20038;-77
2022/10/06 05:36:06;;;;;;;4.68;1.70;;;16.30;99.90;;;;;;4993385;28;20037;-77
2022/10/06 05:38:33;;;;;;;3.78;1.73;;;16.30;99.90;;;;;;4976135;28;20061;-77
2022/10/06 05:41:22;;;;;;;5.93;1.70;;;16.30;99.90;;;;;;4976126;28;20057;-78
2022/10/06 05:43:49;;;;;;;3.38;1.85;;;16.30;99.90;;;;;;4976492;28;20037;-77
2022/10/06 05:46:24;;;;;;;6.35;1.60;;;16.30;99.90;;;;;;4975700;28;20113;-78
2022/10/06 05:48:54;;;;;;;3.53;1.95;;;16.30;99.90;;;;;;4976042;28;20034;-78
2022/10/06 05:51:21;;;;;;;5.82;2.00;;;16.30;99.90;;;;;;4975170;28;20517;-78
2022/10/06 05:53:47;;;;;;;3.85;1.70;;;16.30;99.90;;;;;;4976100;28;20022;-78
2022/10/06 05:56:15;;;;;;;6.05;2.03;;;16.30;99.90;;;;;;4975835;28;20027;-78
2022/10/06 05:58:43;;;;;;;4.35;1.88;;;16.40;99.90;;;;;;4976162;28;20066;-77
2022/10/06 06:01:15;;;;;;;3.95;1.85;;;16.30;99.90;;;;;;4975828;28;20035;-81
2022/10/06 06:03:42;;;;;;;4.88;1.88;;;16.30;99.90;;;;;;4993543;28;20042;-77
2022/10/06 06:06:16;;;;;;;3.03;1.83;;;16.30;99.90;;;;;;4993070;28;20026;-80
2022/10/06 06:08:42;;;;;;;5.40;2.20;;;16.30;99.90;;;;;;4976254;28;20088;-77
2022/10/06 06:11:08;;;;;;;6.68;2.05;;;16.40;99.90;;;;;;4991528;28;20113;-79
2022/10/06 06:13:35;;;;;;;2.05;1.50;;;16.40;99.90;;;;;;4975681;28;20034;-77
2022/10/06 06:16:03;;;;;;;5.00;1.50;;;16.40;99.90;;;;;;4975873;28;20108;-77
2022/10/06 06:18:29;;;;;;;4.47;1.38;;;16.40;99.90;;;;;;4992846;28;20048;-77
2022/10/06 06:20:59;;;;;;;3.17;1.63;;;16.40;99.90;;;;;;4975936;28;20027;-77
2022/10/06 06:23:49;;;;;;;5.57;1.80;;;16.40;99.90;;;;;;4992708;28;20034;-77
2022/10/06 06:26:24;;;;;;;4.78;1.83;;;16.40;99.90;;;;;;4992979;28;20034;-77
2022/10/06 06:28:51;;;;;;;4.47;1.55;;;16.40;99.90;;;;;;4979489;28;20088;-77
2022/10/06 06:31:28;;;;;;;3.55;1.55;;;16.40;99.90;;;;;;4996075;28;20041;-77
2022/10/06 06:33:56;;;;;;;3.78;1.50;;;16.40;99.90;;;;;;4979210;28;20070;-77
2022/10/06 06:36:39;;;;;;;4.40;1.70;;;16.40;99.90;;;;;;4995936;28;20072;-77
2022/10/06 06:39:08;;;;;;;3.90;2.30;;;16.40;99.90;;;;;;4979300;28;20041;-79
2022/10/06 06:41:39;;;;;;;5.32;1.75;;;16.40;99.90;;;;;;4978751;28;20036;-79
2022/10/06 06:44:07;;;;;;;4.93;1.65;;;16.30;99.90;;;;;;4979451;28;20037;-78
2022/10/06 06:46:33;;;;;;;5.35;1.70;;;16.40;99.90;;;;;;4996202;28;20026;-79
2022/10/06 06:49:03;;;;;;;7.93;2.05;;;16.40;99.90;;;;;;4995522;28;20045;-79
2022/10/06 06:51:29;;;;;;;6.10;1.75;;;16.40;99.90;;;;;;4995864;28;20050;-79
2022/10/06 06:53:58;;;;;;;4.97;1.48;;;16.40;99.90;;;;;;4996804;28;20034;-79
2022/10/06 06:56:23;;;;;;;5.20;1.25;;;16.30;99.90;;;;;;4978733;28;20030;-79
2022/10/06 06:58:49;;;;;;;4.57;1.20;;;16.30;99.90;;;;;;4996505;28;20045;-79
2022/10/06 07:01:20;;;;;;;3.33;1.33;;;16.30;99.90;;;;;;4976181;28;20072;-80
2022/10/06 07:03:51;;;;;;;5.32;2.00;;;16.40;99.90;;;;;;4969026;28;20121;-79
2022/10/06 07:06:18;;;;;;;7.93;1.25;;;16.40;99.90;;;;;;4987441;28;20031;-79
2022/10/06 07:08:45;;;;;;;5.38;1.13;;;16.40;99.90;;;;;;4985463;28;20443;-79
2022/10/06 07:11:12;;;;;;;4.38;0.85;;;16.40;99.90;;;;;;4969613;28;20476;-79
2022/10/06 07:13:38;;;;;;;4.43;0.82;;;16.40;99.90;;;;;;4986407;28;20023;-80
2022/10/06 07:27:02;;;;;;;5.72;1.05;;;16.50;99.90;;;;;;4994785;28;20045;-80
2022/10/06 07:29:27;;;;;;;2.95;1.15;;;16.50;99.90;;;;;;4993798;28;20034;-80
2022/10/06 07:31:53;;;;;;;3.42;1.10;;;16.60;99.90;;;;;;4993429;28;20035;-80
2022/10/06 07:34:20;;;;;;;5.65;1.05;;;16.60;99.90;;;;;;4976550;28;20038;-81
2022/10/06 07:36:49;;;;;;;7.05;0.80;;;16.60;99.90;;;;;;4994885;28;20018;-80
2022/10/06 07:39:14;;;;;;;8.10;1.00;;;16.60;99.90;;;;;;4993637;28;20113;-81
2022/10/06 07:41:40;;;;;;;3.15;0.73;;;16.60;99.90;;;;;;4977369;28;20054;-81
2022/10/06 07:44:05;;;;;;;4.90;0.70;;;16.60;99.90;;;;;;4977995;28;20080;-82
2022/10/06 07:46:34;;;;;;;3.35;0.80;;;16.70;99.90;;;;;;4993584;28;20364;-81
2022/10/06 07:48:59;;;;;;;3.63;1.10;;;16.70;99.90;;;;;;4977151;28;20085;-84
2022/10/06 07:51:26;;;;;;;6.97;0.85;;;16.70;99.90;;;;;;4968067;28;20098;-85
2022/10/06 07:53:52;;;;;;;3.53;0.85;;;16.80;99.90;;;;;;4973838;28;20023;-82
2022/10/06 07:56:22;;;;;;;3.22;0.60;;;16.80;99.90;;;;;;4972402;28;20029;-82
2022/10/06 07:58:49;;;;;;;6.28;1.02;;;16.90;99.90;;;;;;4973126;28;20030;-84
2022/10/06 08:01:17;;;;;;;4.28;0.90;;;16.90;99.90;;;;;;4973413;28;20035;-87
2022/10/06 08:03:45;;;;;;;5.20;1.23;;;16.90;99.90;;;;;;4964299;28;20027;-82
2022/10/06 08:06:15;;;;;;;3.65;0.80;;;16.90;99.90;;;;;;4974038;28;20038;-79
2022/10/06 08:08:43;;;;;;;3.88;0.50;;;17.00;99.90;;;;;;4972616;28;20388;-80
2022/10/06 08:11:10;;;;;;;5.75;0.82;;;17.00;99.90;;;;;;4988999;28;20027;-79
2022/10/06 08:13:37;;;;;;;5.53;0.85;;;17.00;99.90;;;;;;4973285;28;20085;-79
2022/10/06 08:16:05;;;;;;;4.13;0.73;;;17.00;99.90;;;;;;4972899;28;20028;-78
2022/10/06 08:18:30;;;;;;;4.78;0.60;;;17.00;99.90;;;;;;4973472;28;20098;-80
2022/10/06 08:20:57;;;;;;;7.00;0.90;;;17.10;99.90;;;;;;4973048;28;20023;-78
2022/10/06 08:23:23;;;;;;;5.70;0.85;;;17.00;99.90;;;;;;4973302;28;20491;-79
2022/10/06 08:25:50;;;;;;;4.38;0.80;;;17.10;99.90;;;;;;4974016;28;20046;-78
2022/10/06 08:28:16;;;;;;;6.63;0.80;;;17.00;99.90;;;;;;4971343;28;20035;-77
2022/10/06 08:30:42;;;;;;;6.45;0.82;;;17.00;99.90;;;;;;4971555;28;20101;-78
2022/10/06 08:33:08;;;;;;;6.28;0.65;;;16.90;99.90;;;;;;4972504;28;20113;-76
2022/10/06 08:35:34;;;;;;;6.45;0.77;;;16.90;99.90;;;;;;4973120;28;20611;-79
2022/10/06 08:38:00;;;;;;;5.28;1.05;;;16.70;99.90;;;;;;4973642;28;20026;-80
2022/10/06 08:40:27;;;;;;;4.68;0.77;;;16.80;99.90;;;;;;4987236;28;20029;-79
2022/10/06 08:42:57;;;;;;;5.57;0.95;;;16.80;99.90;;;;;;4974355;28;20030;-80
2022/10/06 08:45:34;;;;;;;5.25;0.90;;;16.70;99.90;;;;;;4987660;28;20019;-79
2022/10/06 08:48:14;;;;;;;6.70;1.05;;;16.70;99.90;;;;;;4971720;28;20113;-80
2022/10/06 08:50:57;;;;;;;3.67;0.90;;;16.60;99.90;;;;;;4988168;28;20097;-80
2022/10/06 08:53:45;;;;;;;9.05;0.90;;;16.60;99.90;;;;;;4970939;28;20034;-77
2022/10/06 08:56:20;;;;;;;6.20;0.80;;;16.60;99.90;;;;;;4973429;28;20385;-78
2022/10/06 08:59:02;;;;;;;7.88;1.00;;;16.60;99.90;;;;;;4972378;28;20026;-77
2022/10/06 09:01:40;;;;;;;5.90;0.88;;;16.60;99.90;;;;;;4972571;28;20022;-76
2022/10/06 09:04:09;;;;;;;5.47;1.02;;;16.60;99.90;;;;;;4973123;28;20054;-76
2022/10/06 09:07:02;;;;;;;8.98;0.90;;;16.60;99.90;;;;;;4987783;28;20027;-76
2022/10/06 09:09:56;;;;;;;3.92;0.75;;;16.60;99.90;;;;;;4970985;28;20042;-76
2022/10/06 09:12:52;;;;;;;4.72;0.80;;;16.70;99.90;;;;;;4971530;28;20042;-77
2022/10/06 09:15:45;;;;;;;7.68;0.98;;;16.70;99.90;;;;;;4971962;28;20464;-77
2022/10/06 09:18:31;;;;;;;4.72;0.93;;;16.80;99.90;;;;;;4970594;28;20027;-77
2022/10/06 09:21:00;;;;;;;4.68;0.65;;;16.90;99.90;;;;;;4970617;28;20043;-76
2022/10/06 09:23:46;;;;;;;7.22;1.05;;;16.90;99.90;;;;;;4971916;28;20037;-77
2022/10/06 09:26:15;;;;;;;6.07;0.85;;;17.00;99.90;;;;;;4972764;28;20054;-77
2022/10/06 09:28:45;;;;;;;5.50;0.65;;;17.10;99.90;;;;;;4971295;28;20038;-76
2022/10/06 09:31:19;;;;;;;4.93;1.00;;;17.20;99.90;;;;;;4972518;28;20027;-77
2022/10/06 09:33:47;;;;;;;7.20;1.08;;;17.30;99.90;;;;;;4972754;28;20034;-79
2022/10/06 09:36:13;;;;;;;3.47;0.70;;;17.40;99.90;;;;;;4971811;28;20031;-82
2022/10/06 09:38:48;;;;;;;5.88;1.17;;;17.60;99.90;;;;;;4972968;28;20074;-79
2022/10/06 09:41:15;;;;;;;3.33;1.05;;;17.70;99.90;;;;;;4986255;28;20093;-80
2022/10/06 09:43:51;;;;;;;5.95;0.98;;;17.80;99.90;;;;;;4988060;28;20027;-77
2022/10/06 09:46:30;;;;;;;3.80;0.80;;;17.90;99.90;;;;;;4971206;28;20030;-81
2022/10/06 09:49:17;;;;;;;4.90;1.17;;;18.00;99.90;;;;;;4971619;28;20089;-80
2022/10/06 09:52:01;;;;;;;4.88;0.90;;;17.90;99.90;;;;;;4990981;28;20050;-80
2022/10/06 09:54:27;;;;;;;5.43;0.70;;;18.00;99.90;;;;;;4992024;28;20034;-79
2022/10/06 09:56:55;;;;;;;7.78;1.33;;;18.00;99.90;;;;;;4992367;28;20026;-78
2022/10/06 09:59:23;;;;;;;5.53;0.80;;;18.20;99.90;;;;;;4990829;28;20395;-78
2022/10/06 10:01:56;;;;;;;8.48;0.77;;;18.10;99.90;;;;;;4993996;28;20038;-79
2022/10/06 10:04:29;;;;;;;3.72;0.82;;;18.00;99.90;;;;;;4978506;28;20057;-78
2022/10/06 10:07:23;;;;;;;6.50;0.73;;;18.00;99.90;;;;;;4977353;28;20034;-77
2022/10/06 10:09:49;;;;;;;5.60;0.93;;;18.10;99.90;;;;;;4994514;28;20053;-76
2022/10/06 10:12:23;;;;;;;4.18;1.00;;;18.10;99.90;;;;;;4995191;28;20033;-78
2022/10/06 10:14:56;;;;;;;5.47;1.02;;;18.10;99.90;;;;;;4995500;28;20026;-77
2022/10/06 10:17:38;;;;;;;2.35;0.77;;;18.10;99.90;;;;;;4995001;28;20027;-75
2022/10/06 10:20:18;;;;;;;6.65;1.38;;;18.10;99.90;;;;;;4976366;28;20129;-81
2022/10/06 10:22:46;;;;;;;9.23;0.90;;;18.20;99.90;;;;;;4979805;28;20027;-81
2022/10/06 10:25:33;;;;;;;4.47;0.80;;;18.20;99.90;;;;;;4996221;28;20025;-77
2022/10/06 10:28:14;;;;;;;4.70;0.80;;;18.10;99.90;;;;;;4995033;28;20034;-81
2022/10/06 10:31:02;;;;;;;5.63;0.80;;;18.20;99.90;;;;;;4978519;28;20057;-78
2022/10/06 10:33:56;;;;;;;8.20;0.82;;;18.20;99.90;;;;;;4994038;28;20030;-78
2022/10/06 10:36:41;;;;;;;3.50;0.80;;;18.40;99.90;;;;;;4960556;28;20038;-76
2022/10/06 10:39:15;;;;;;;3.55;0.77;;;18.40;99.90;;;;;;4978103;28;20041;-77
2022/10/06 10:41:49;;;;;;;3.28;0.55;;;18.50;99.90;;;;;;4994382;28;20053;-77
2022/10/06 10:44:30;;;;;;;5.30;1.17;;;18.50;99.90;;;;;;4991543;28;20053;-76
2022/10/06 10:47:05;;;;;;;3.00;0.75;;;18.40;99.90;;;;;;4974882;28;20026;-77
2022/10/06 10:49:33;;;;;;;4.65;0.85;;;18.30;99.90;;;;;;4969024;28;20038;-78
2022/10/06 10:52:10;;;;;;;5.82;0.80;;;18.20;99.90;;;;;;4979231;28;20043;-78
2022/10/06 10:54:54;;;;;;;5.43;1.05;;;18.20;99.90;;;;;;4994918;28;20029;-78
2022/10/06 10:57:27;;;;;;;5.07;1.20;;;18.30;99.90;;;;;;4994551;28;20150;-78
2022/10/06 10:59:56;;;;;;;3.20;0.80;;;18.40;99.90;;;;;;4996219;28;20431;-77
2022/10/06 11:02:22;;;;;;;4.00;0.70;;;18.50;99.90;;;;;;4996026;28;20033;-77
2022/10/06 11:05:00;;;;;;;6.28;0.80;;;18.60;99.90;;;;;;4995119;28;20117;-77
2022/10/06 11:07:45;;;;;;;2.85;0.85;;;18.80;99.90;;;;;;4994405;28;20033;-77
2022/10/06 11:10:16;;;;;;;4.30;0.95;;;18.90;99.90;;;;;;4978984;28;20030;-77
2022/10/06 11:12:53;;;;;;;4.47;1.05;;;19.00;99.90;;;;;;4977490;28;20475;-78
2022/10/06 11:16:01;;;;;;;9.10;1.15;;;19.00;99.90;;;;;;4978510;28;20037;-78
2022/10/06 11:18:32;;;;;;;4.47;0.98;;;18.90;99.90;;;;;;4995778;28;20026;-77
2022/10/06 11:21:17;;;;;;;4.22;0.70;;;18.90;99.90;;;;;;4978670;28;20109;-77
2022/10/06 11:24:08;;;;;;;4.57;0.70;;;18.90;99.90;;;;;;4994871;28;20133;-77
2022/10/06 11:26:47;;;;;;;6.72;0.95;;;19.00;99.90;;;;;;4995353;28;20053;-77
2022/10/06 11:29:30;;;;;;;5.78;0.85;;;19.00;99.90;;;;;;4994859;28;20141;-78
2022/10/06 11:32:23;;;;;;;5.63;1.30;;;19.20;99.90;;;;;;4995762;28;20567;-78
2022/10/06 11:34:49;;;;;;;4.88;0.73;;;19.00;99.90;;;;;;4994373;28;20039;-77
2022/10/06 11:37:48;;;;;;;1.83;0.60;;;19.00;99.90;;;;;;4978466;28;20121;-78
2022/10/06 11:40:36;;;;;;;3.35;0.93;;;18.90;99.90;;;;;;4978495;28;20482;-77
2022/10/06 11:43:18;;;;;;;5.07;0.90;;;18.90;99.90;;;;;;4995695;28;20057;-78
2022/10/06 11:45:53;;;;;;;1.60;0.50;;;18.90;99.90;;;;;;4994457;28;20053;-78
2022/10/06 11:48:25;;;;;;;4.53;0.85;;;19.10;99.90;;;;;;4977960;28;20041;-78
2022/10/06 11:50:54;;;;;;;2.85;0.80;;;19.40;99.90;;;;;;4993962;28;20491;-77
2022/10/06 11:53:35;;;;;;;4.18;0.82;;;19.50;99.90;;;;;;4995172;28;20464;-78
2022/10/06 11:56:16;;;;;;;7.28;0.80;;;19.60;99.90;;;;;;4978160;28;20447;-78
2022/10/06 11:58:54;;;;;;;2.35;0.85;;;19.70;99.90;;;;;;4995402;28;20030;-78
2022/10/06 12:01:35;;;;;;;3.22;0.70;;;19.70;98.70;;;;;;4977451;28;20038;-79
2022/10/06 12:04:06;;;;;;;4.15;0.88;;;19.80;99.00;;;;;;4977957;28;20093;-79
2022/10/06 12:06:50;;;;;;;2.38;0.57;;;19.90;99.00;;;;;;4994975;28;20428;-78
2022/10/06 12:09:30;;;;;;;4.43;0.68;;;20.10;99.00;;;;;;4994785;28;20031;-77
2022/10/06 12:11:57;;;;;;;2.65;0.90;;;19.90;98.80;;;;;;4995253;28;20031;-78
2022/10/06 12:14:33;;;;;;;3.03;0.88;;;19.70;99.10;;;;;;4977190;28;20084;-78
2022/10/06 12:17:14;;;;;;;5.90;0.90;;;19.50;99.30;;;;;;4995095;28;20022;-78
2022/10/06 12:20:07;;;;;;;4.75;0.90;;;19.60;99.60;;;;;;4994829;28;20109;-77
2022/10/06 12:22:46;;;;;;;2.72;0.70;;;19.60;99.10;;;;;;4993343;28;20036;-77
2022/10/06 12:25:26;;;;;;;5.28;0.60;;;19.90;98.80;;;;;;4993514;28;20030;-78
2022/10/06 12:28:14;;;;;;;4.18;0.73;;;20.00;98.90;;;;;;4977898;28;20489;-78
2022/10/06 12:30:51;;;;;;;4.15;0.70;;;19.70;99.00;;;;;;4994554;28;20043;-78
2022/10/06 12:33:18;;;;;;;2.38;0.82;;;19.70;98.70;;;;;;4994986;28;20435;-78
2022/10/06 12:35:44;;;;;;;3.67;0.85;;;19.60;99.00;;;;;;4993117;28;20031;-78
2022/10/06 12:38:37;;;;;;;4.78;0.68;;;19.50;99.10;;;;;;4993419;28;20037;-78
2022/10/06 12:41:08;;;;;;;6.80;0.70;;;19.70;99.30;;;;;;4990985;28;20392;-78
2022/10/06 12:43:44;;;;;;;4.80;0.80;;;20.00;98.60;;;;;;4994394;28;20428;-77
2022/10/06 12:46:18;;;;;;;3.63;0.80;;;19.80;98.60;;;;;;4993563;28;20233;-78
2022/10/06 12:49:02;;;;;;;5.10;0.95;;;20.20;98.50;;;;;;4992996;28;20031;-78
2022/10/06 12:51:34;;;;;;;2.40;0.68;;;20.90;97.30;;;;;;4976449;28;20050;-78
2022/10/06 12:54:14;;;;;;;6.53;0.88;;;21.20;96.00;;;;;;4977412;28;20030;-78
2022/10/06 12:56:41;;;;;;;3.13;0.70;;;21.00;96.10;;;;;;4994153;28;20484;-77
2022/10/06 12:59:30;;;;;;;7.45;0.90;;;20.90;96.30;;;;;;4994367;28;20034;-78
2022/10/06 13:02:19;;;;;;;4.35;0.63;;;20.70;95.90;;;;;;4994521;28;20033;-78
2022/10/06 13:04:52;;;;;;;5.07;0.85;;;20.50;96.40;;;;;;4992886;28;20117;-77
2022/10/06 13:07:22;;;;;;;5.28;0.82;;;20.20;96.60;;;;;;4994693;28;20376;-78
2022/10/06 13:09:51;;;;;;;5.80;0.73;;;20.60;96.40;;;;;;4993302;28;20043;-78
2022/10/06 13:12:26;;;;;;;2.35;0.60;;;21.40;95.50;;;;;;4994272;28;20113;-78
2022/10/06 13:15:13;;;;;;;4.32;0.82;;;21.90;94.40;;;;;;4993095;28;20030;-78
2022/10/06 13:17:57;;;;;;;2.20;0.50;;;22.80;92.60;;;;;;4993798;28;20027;-79
2022/10/06 13:20:30;;;;;;;3.28;0.75;;;22.50;91.70;;;;;;4992776;28;20495;-80